Seaside Park, New Jersey
Current Conditions -  °F | °C
As of 3:15 PM on Thursday 30 Oct 2014 (Local Time) from KMJX Reporting Station
Few Clouds Few Clouds  
Wind Chill: 57°   Ceiling: Unl
Heat Index: 57°   Visibility: 10mi
Dew Point: 37°   Wind: 6mph
Humidity: 48%   Direction: 280°W
Pressure: 29.98"   Gusts: NA
Location:  39.93°N, 74.07°W
Report Text: KMJX 301915Z AUTO 28005KT 10SM FEW070 14/03 A2998 RMK AO1
Loading
Personal Weather Stations






























Interactive Weather Map New forecast layout! Learn more

10-Day Weather Forecast

Advertisements
Track Severe Weather on mobile